Time;durP1;ratioP1;P1;durP2;ratioP2;P2;SDS_P1;SDS_P2;PMS_P1;PMS_P2;Temp;Humidity;BMP_temperature;BMP_pressure;BME280_temperature;BME280_humidity;BME280_pressure;Samples;Min_cycle;Max_cycle;Signal;HPM_P1;HPM_P2
2023/11/08 00:02:22;;;;;;;3.17;2.10;;;;;;;-145.63;55.58;39431.03;5004196;28;20086;-70
2023/11/08 00:04:48;;;;;;;5.47;2.70;;;;;;;-145.63;55.36;39411.47;5017547;28;20034;-69
2023/11/08 00:07:14;;;;;;;5.22;2.60;;;;;;;-145.63;55.36;39393.88;5015497;28;20022;-67
2023/11/08 00:09:40;;;;;;;6.78;2.70;;;;;;;-145.63;55.13;39372.34;5002835;28;20026;-70
2023/11/08 00:12:08;;;;;;;2.70;2.50;;;;;;;-145.63;55.24;39436.91;5004685;28;20026;-69
2023/11/08 00:14:34;;;;;;;4.75;2.80;;;;;;;-145.63;54.95;39407.56;4995297;28;20314;-69
2023/11/08 00:17:01;;;;;;;3.60;2.28;;;;;;;-145.63;54.97;39411.47;4996692;28;20122;-68
2023/11/08 00:19:27;;;;;;;3.30;2.50;;;;;;;-145.63;54.98;39393.88;4997417;28;20319;-70
2023/11/08 00:21:53;;;;;;;3.25;2.67;;;;;;;-145.63;55.17;39391.91;4983502;28;20035;-68
2023/11/08 00:24:19;;;;;;;5.60;2.67;;;;;;;-145.63;54.99;39395.84;4986568;28;20062;-69
2023/11/08 00:26:45;;;;;;;7.70;3.10;;;;;;;-145.63;55.09;39384.09;5022872;28;20034;-69
2023/11/08 00:29:11;;;;;;;5.53;2.90;;;;;;;-145.63;55.05;39419.31;5007645;28;20026;-69
2023/11/08 00:31:37;;;;;;;9.57;3.22;;;;;;;-145.63;54.72;39388.00;5003836;28;20030;-69
2023/11/08 00:34:03;;;;;;;5.38;2.60;;;;;;;-145.63;54.80;39419.31;5009880;28;20332;-68
2023/11/08 00:36:29;;;;;;;5.28;2.70;;;;;;;-145.63;54.62;39366.50;5021583;28;20033;-69
2023/11/08 00:38:57;;;;;;;6.20;2.78;;;;;;;-145.63;54.30;39360.63;4986363;28;20072;-69
2023/11/08 00:41:24;;;;;;;4.00;2.40;;;;;;;-145.63;54.09;39415.38;5021303;28;20025;-69
2023/11/08 00:43:55;;;;;;;3.05;2.63;;;;;;;-145.63;54.25;39397.78;5023250;28;20025;-69
2023/11/08 00:46:23;;;;;;;4.55;2.63;;;;;;;-145.63;54.52;39378.22;5012873;28;20026;-69
2023/11/08 00:48:48;;;;;;;3.67;2.58;;;;;;;-145.63;55.20;39403.66;5003512;28;20034;-68
2023/11/08 00:51:14;;;;;;;3.28;2.42;;;;;;;-145.63;54.83;39372.34;5003432;28;20060;-68
2023/11/08 00:53:39;;;;;;;7.20;3.17;;;;;;;-145.63;54.67;39415.38;5003010;28;20030;-70
2023/11/08 00:56:05;;;;;;;3.70;2.50;;;;;;;-145.63;54.99;39399.75;4988553;28;20027;-70
2023/11/08 00:58:31;;;;;;;2.92;2.60;;;;;;;-145.63;55.11;39391.91;4992750;28;20214;-70
2023/11/08 01:00:57;;;;;;;6.93;2.97;;;;;;;-145.63;54.70;39329.34;5003313;28;20092;-69
2023/11/08 01:03:22;;;;;;;5.60;2.70;;;;;;;-145.63;55.04;39391.91;5002009;28;20218;-68
2023/11/08 01:05:48;;;;;;;6.35;2.88;;;;;;;-145.63;54.92;39364.53;4983517;28;20019;-70
2023/11/08 01:08:14;;;;;;;3.35;2.70;;;;;;;-145.63;54.83;39388.00;4999689;28;20365;-69
2023/11/08 01:10:40;;;;;;;3.65;2.58;;;;;;;-145.63;55.03;39315.66;4995707;28;20026;-70
2023/11/08 01:13:07;;;;;;;5.18;2.88;;;;;;;-145.63;55.05;39395.84;5001772;28;20042;-69
2023/11/08 01:15:32;;;;;;;3.88;2.80;;;;;;;-145.63;55.46;39401.69;4999490;28;20570;-68
2023/11/08 01:17:58;;;;;;;7.30;2.80;;;;;;;-145.63;55.34;39380.19;4993592;28;20070;-68
2023/11/08 01:20:24;;;;;;;6.85;2.88;;;;;;;-145.63;54.98;39427.13;5000727;28;20026;-69
2023/11/08 01:22:50;;;;;;;4.65;2.90;;;;;;;-145.63;54.84;39411.47;5001389;28;20042;-68
2023/11/08 01:25:16;;;;;;;4.35;2.95;;;;;;;-145.63;54.95;39386.06;4994667;28;20047;-67
2023/11/08 01:27:42;;;;;;;4.85;2.63;;;;;;;-145.63;54.82;39391.91;4986838;28;20034;-68
2023/11/08 01:30:08;;;;;;;5.90;2.97;;;;;;;-145.63;54.83;39415.38;5002869;28;20033;-69
2023/11/08 01:32:34;;;;;;;3.22;2.80;;;;;;;-145.63;54.76;39407.56;5002456;28;20335;-68
2023/11/08 01:35:01;;;;;;;4.90;2.80;;;;;;;-145.63;55.16;39399.75;4988467;28;20042;-68
2023/11/08 01:37:33;;;;;;;3.83;2.90;;;;;;;-145.63;54.97;39384.09;4992256;28;20032;-67
2023/11/08 01:39:59;;;;;;;5.63;3.17;;;;;;;-145.63;54.65;39395.84;5000541;28;20046;-68
2023/11/08 01:42:25;;;;;;;9.35;3.08;;;;;;;-145.63;55.17;39405.59;4987847;28;20030;-67
2023/11/08 01:44:50;;;;;;;3.55;2.55;;;;;;;-145.63;55.15;39413.44;5024917;28;20026;-68
2023/11/08 01:47:17;;;;;;;6.22;2.78;;;;;;;-145.63;54.61;39411.47;5025136;28;20048;-70
2023/11/08 01:49:43;;;;;;;5.85;2.97;;;;;;;-145.63;55.31;39442.78;5023688;28;20026;-70
2023/11/08 01:52:12;;;;;;;5.50;2.83;;;;;;;-145.63;55.17;39407.56;5010276;28;20108;-69
2023/11/08 01:54:41;;;;;;;5.22;3.72;;;;;;;-145.63;55.14;39477.97;5009392;28;20092;-69
2023/11/08 01:57:07;;;;;;;5.05;2.40;;;;;;;-145.63;55.53;39397.78;5026342;28;20038;-69
2023/11/08 01:59:33;;;;;;;5.53;2.88;;;;;;;-145.63;54.80;39386.06;4989781;28;20096;-70
2023/11/08 02:01:59;;;;;;;3.10;2.70;;;;;;;-145.63;55.11;39386.06;5012922;28;20053;-71
2023/11/08 02:04:27;;;;;;;6.72;3.20;;;;;;;-145.63;55.56;39401.69;5025960;28;20022;-69
2023/11/08 02:06:53;;;;;;;5.68;3.22;;;;;;;-145.63;55.28;39403.66;5026002;28;20045;-69
2023/11/08 02:09:20;;;;;;;6.05;3.22;;;;;;;-145.63;54.63;39415.38;5026161;28;20026;-70
2023/11/08 02:11:45;;;;;;;4.85;3.15;;;;;;;-145.63;54.81;39407.56;5006013;28;20034;-69
2023/11/08 02:14:11;;;;;;;4.30;3.00;;;;;;;-145.63;55.13;39407.56;5020342;28;20385;-71
2023/11/08 02:16:38;;;;;;;5.65;3.08;;;;;;;-145.63;54.63;39401.69;5004248;28;20026;-68
2023/11/08 02:19:05;;;;;;;3.60;3.30;;;;;;;-145.63;54.74;39368.44;4997706;28;20058;-68
2023/11/08 02:21:32;;;;;;;5.50;3.30;;;;;;;-145.63;55.01;39407.56;5005008;28;20030;-68
2023/11/08 02:24:06;;;;;;;4.40;3.13;;;;;;;-145.63;54.81;39401.69;5006010;28;20125;-68
2023/11/08 02:26:32;;;;;;;6.28;3.50;;;;;;;-145.63;55.56;39427.13;4987145;28;20051;-69
2023/11/08 02:28:58;;;;;;;6.45;3.58;;;;;;;-145.63;55.02;39419.31;4999469;28;20076;-69
2023/11/08 02:31:23;;;;;;;9.00;3.75;;;;;;;-145.63;55.03;39411.47;5005649;28;20018;-69
2023/11/08 02:33:49;;;;;;;6.55;3.65;;;;;;;-145.63;55.07;39419.31;5000488;28;20110;-70
2023/11/08 02:36:16;;;;;;;5.28;3.38;;;;;;;-145.63;54.90;39419.31;4986227;28;20042;-68
2023/11/08 02:38:41;;;;;;;8.07;3.55;;;;;;;-145.63;54.88;39419.31;5005292;28;20036;-69
2023/11/08 02:41:08;;;;;;;6.22;3.40;;;;;;;-145.63;55.38;38957.75;5019789;28;20202;-69
2023/11/08 02:43:35;;;;;;;7.38;3.55;;;;;;;-145.63;54.51;39161.13;5015414;28;20022;-70
2023/11/08 02:46:01;;;;;;;6.20;3.60;;;;;;;-145.63;55.01;39425.16;5000141;28;20030;-69
2023/11/08 02:48:27;;;;;;;4.65;3.28;;;;;;;-145.63;55.21;39399.75;4988568;28;20314;-70
2023/11/08 02:50:53;;;;;;;8.02;3.67;;;;;;;-145.63;54.67;39388.00;5003768;28;20033;-70
2023/11/08 02:53:20;;;;;;;5.22;3.50;;;;;;;-145.63;54.76;39393.88;5004629;28;20318;-70
2023/11/08 02:55:46;;;;;;;9.77;4.30;;;;;;;-145.63;55.47;39411.47;4994158;28;20026;-69
2023/11/08 02:58:12;;;;;;;8.88;4.32;;;;;;;-145.63;55.36;39401.69;4993171;28;20029;-69
2023/11/08 03:00:37;;;;;;;5.82;4.00;;;;;;;-145.63;55.05;39397.78;5004177;28;20026;-69
2023/11/08 03:03:03;;;;;;;6.50;3.80;;;;;;;-145.63;55.28;39401.69;5005720;28;20358;-69
2023/11/08 03:05:32;;;;;;;7.00;3.83;;;;;;;-145.63;54.76;39470.16;4988665;28;20034;-69
2023/11/08 03:07:58;;;;;;;7.32;4.07;;;;;;;-145.63;54.61;39474.06;4998508;28;20041;-69
2023/11/08 03:10:25;;;;;;;8.82;5.20;;;;;;;-145.63;54.71;39399.75;4998320;28;20034;-67
2023/11/08 03:12:52;;;;;;;7.00;3.95;;;;;;;-145.63;54.88;39419.31;5003839;28;20037;-69
2023/11/08 03:15:20;;;;;;;5.40;3.30;;;;;;;-145.63;54.53;39409.53;5002971;28;20046;-69
2023/11/08 03:17:48;;;;;;;7.88;4.25;;;;;;;-145.63;54.25;39391.91;5018472;28;20222;-71
2023/11/08 03:20:14;;;;;;;7.38;4.38;;;;;;;-145.63;54.80;39391.91;5002041;28;20097;-70
2023/11/08 03:22:41;;;;;;;8.80;4.65;;;;;;;-145.63;55.09;39423.22;5005068;28;20074;-70
2023/11/08 03:25:13;;;;;;;7.05;4.03;;;;;;;-145.63;55.12;39411.47;5003317;28;20026;-69
2023/11/08 03:27:43;;;;;;;6.88;4.35;;;;;;;-145.63;55.08;39413.44;5002246;28;20022;-68
2023/11/08 03:30:16;;;;;;;6.03;4.20;;;;;;;-145.63;54.91;39423.22;4993381;28;20062;-68
2023/11/08 03:32:42;;;;;;;6.10;4.40;;;;;;;-145.63;55.63;39386.06;5003762;28;20051;-70
2023/11/08 03:35:09;;;;;;;7.10;4.47;;;;;;;-145.63;55.88;39380.19;4990844;28;20026;-69
2023/11/08 03:37:36;;;;;;;6.22;4.20;;;;;;;-145.63;55.49;39407.56;4995365;28;20203;-68
2023/11/08 03:40:05;;;;;;;7.20;4.60;;;;;;;-145.63;55.55;39243.28;4998839;28;20037;-67
2023/11/08 03:42:34;;;;;;;7.43;4.30;;;;;;;-145.63;55.09;39372.34;5023025;28;20088;-68
2023/11/08 03:45:01;;;;;;;8.15;4.93;;;;;;;-145.63;54.97;39370.41;5023946;28;20225;-67
2023/11/08 03:47:27;;;;;;;10.10;4.80;;;;;;;-145.63;54.52;39421.25;5007904;28;20306;-68
2023/11/08 03:49:54;;;;;;;8.85;4.35;;;;;;;-145.63;55.01;39409.53;5003267;28;20058;-68
2023/11/08 03:52:20;;;;;;;10.38;5.03;;;;;;;-145.63;54.99;39395.84;5003210;28;20033;-68
2023/11/08 03:54:46;;;;;;;7.40;4.85;;;;;;;-145.63;54.87;39409.53;5000620;28;20038;-68
2023/11/08 03:57:12;;;;;;;6.45;4.93;;;;;;;-145.63;55.43;38826.72;4984906;28;20033;-66
2023/11/08 03:59:38;;;;;;;8.25;5.28;;;;;;;-145.63;55.22;39397.78;5002412;28;20034;-68
2023/11/08 04:02:03;;;;;;;8.25;5.88;;;;;;;-145.63;55.13;39384.09;4989404;28;20058;-68
2023/11/08 04:04:29;;;;;;;10.70;5.10;;;;;;;-145.63;54.96;39372.34;4995754;28;20035;-68
2023/11/08 04:06:55;;;;;;;7.22;4.70;;;;;;;-145.63;55.45;39407.56;4988716;28;20026;-69
2023/11/08 04:09:20;;;;;;;5.85;4.38;;;;;;;-145.63;55.06;39415.38;4999384;28;20038;-68
2023/11/08 04:11:46;;;;;;;7.85;5.32;;;;;;;-145.63;55.71;39411.47;4994344;28;20061;-69
2023/11/08 04:14:12;;;;;;;7.57;4.60;;;;;;;-145.63;55.03;39419.31;4988661;28;20027;-69
2023/11/08 04:16:39;;;;;;;8.93;5.05;;;;;;;-145.63;55.01;39419.31;4989654;28;20035;-69
2023/11/08 04:19:05;;;;;;;7.25;5.13;;;;;;;-145.63;55.84;39405.59;4994153;28;20039;-69
2023/11/08 04:21:31;;;;;;;7.32;4.68;;;;;;;-145.63;55.09;39401.69;4990309;28;20093;-71
2023/11/08 04:23:57;;;;;;;9.75;4.90;;;;;;;-145.63;55.76;39403.66;4985076;28;20023;-67
2023/11/08 04:26:26;;;;;;;10.40;5.53;;;;;;;-145.63;55.36;39403.66;4985571;28;20030;-71
2023/11/08 04:28:51;;;;;;;6.60;4.55;;;;;;;-145.63;55.09;39438.84;4995757;28;20030;-70
2023/11/08 04:31:17;;;;;;;9.10;5.45;;;;;;;-145.63;55.95;39403.66;5002739;28;20034;-69
2023/11/08 04:33:43;;;;;;;5.43;4.65;;;;;;;-145.63;55.59;39399.75;5001690;28;20054;-70
2023/11/08 04:36:12;;;;;;;6.95;4.88;;;;;;;-145.63;55.85;39376.28;4984751;28;20149;-69
2023/11/08 04:38:39;;;;;;;7.63;5.55;;;;;;;-145.63;55.35;39401.69;5001505;28;20071;-69
2023/11/08 04:41:07;;;;;;;7.85;4.88;;;;;;;-145.63;55.38;39419.31;4990817;28;20222;-69
2023/11/08 04:43:35;;;;;;;7.97;5.47;;;;;;;-145.63;55.27;39409.53;4993098;28;20172;-69
2023/11/08 04:46:00;;;;;;;6.93;5.45;;;;;;;-145.63;55.23;39417.34;5003164;28;20262;-68
2023/11/08 04:48:26;;;;;;;6.32;5.20;;;;;;;-145.63;55.25;39481.88;5003755;28;20109;-72
2023/11/08 04:50:53;;;;;;;8.23;5.32;;;;;;;-145.63;55.10;39411.47;5015448;28;20022;-71
2023/11/08 04:53:18;;;;;;;9.32;5.82;;;;;;;-145.63;55.59;39450.59;5002471;28;20140;-70
2023/11/08 04:55:44;;;;;;;8.90;5.22;;;;;;;-145.63;55.59;39434.94;4994645;28;20026;-72
2023/11/08 04:58:10;;;;;;;6.65;5.20;;;;;;;-145.63;55.49;39431.03;4994573;28;20031;-72
2023/11/08 05:00:35;;;;;;;8.07;5.90;;;;;;;-145.63;55.44;39397.78;4993440;28;20041;-72
2023/11/08 05:03:01;;;;;;;7.93;5.15;;;;;;;-145.63;55.36;39411.47;4985953;28;20038;-71
2023/11/08 05:05:27;;;;;;;10.48;5.72;;;;;;;-145.63;55.54;39403.66;4999542;28;20025;-69
2023/11/08 05:07:52;;;;;;;10.23;5.35;;;;;;;-145.63;55.20;39438.84;4992470;28;20077;-70
2023/11/08 05:10:18;;;;;;;6.15;5.32;;;;;;;-145.63;55.19;39380.19;4984866;28;20200;-72
2023/11/08 05:12:44;;;;;;;9.23;5.53;;;;;;;-145.63;55.38;39427.13;5000829;28;20087;-71
2023/11/08 05:15:10;;;;;;;8.05;5.93;;;;;;;-145.63;54.93;39419.31;4995069;28;20318;-69
2023/11/08 05:17:37;;;;;;;10.18;5.57;;;;;;;-145.63;55.15;39470.16;4987945;28;20042;-68
2023/11/08 05:20:07;;;;;;;9.07;5.68;;;;;;;-145.63;55.31;39431.03;4999072;28;20025;-68
2023/11/08 05:22:33;;;;;;;10.35;6.07;;;;;;;-145.63;55.66;39415.38;4998931;28;20214;-69
2023/11/08 05:25:00;;;;;;;11.38;5.68;;;;;;;-145.63;55.09;39413.44;4989556;28;20298;-68
2023/11/08 05:27:26;;;;;;;9.00;5.82;;;;;;;-145.63;55.47;39401.69;5006822;28;20030;-68
2023/11/08 05:29:53;;;;;;;6.88;5.25;;;;;;;-145.63;54.95;39407.56;4987041;28;20295;-68
2023/11/08 05:32:21;;;;;;;8.60;5.35;;;;;;;-145.63;55.17;39403.66;5004361;28;20100;-68
2023/11/08 05:34:50;;;;;;;13.77;6.20;;;;;;;-145.63;55.03;39415.38;4995694;28;20037;-69
2023/11/08 05:37:16;;;;;;;13.18;5.32;;;;;;;-145.63;55.30;39448.63;4992876;28;20030;-69
2023/11/08 05:39:46;;;;;;;8.77;5.45;;;;;;;-145.63;54.99;39427.13;5005610;28;20038;-69
2023/11/08 05:42:12;;;;;;;10.35;7.07;;;;;;;-145.63;54.48;39401.69;4986358;28;20023;-68
2023/11/08 05:44:37;;;;;;;8.25;5.05;;;;;;;-145.63;54.34;39395.84;5003560;28;20026;-71
2023/11/08 05:47:03;;;;;;;12.57;6.07;;;;;;;-145.63;54.28;39372.34;4994646;28;20027;-69
2023/11/08 05:49:30;;;;;;;10.60;5.72;;;;;;;-145.63;54.46;39395.84;4999040;28;20030;-69
2023/11/08 05:51:55;;;;;;;8.30;5.53;;;;;;;-145.63;54.52;39389.97;5005445;28;20044;-70
2023/11/08 05:54:21;;;;;;;7.25;5.40;;;;;;;-145.63;54.65;39395.84;5006587;28;20091;-70
2023/11/08 05:56:47;;;;;;;6.72;5.38;;;;;;;-145.63;54.73;39411.47;4988562;28;20208;-70
2023/11/08 05:59:14;;;;;;;9.05;5.50;;;;;;;-145.63;54.82;39423.22;5000313;28;20030;-70
2023/11/08 06:01:40;;;;;;;9.50;4.97;;;;;;;-145.63;54.57;39425.16;5006469;28;20030;-70
2023/11/08 06:04:07;;;;;;;8.98;5.22;;;;;;;-145.63;54.67;39425.16;5001919;28;20026;-69
2023/11/08 06:06:35;;;;;;;8.05;5.20;;;;;;;-145.63;54.34;39401.69;4986803;28;20035;-70
2023/11/08 06:09:04;;;;;;;7.13;5.00;;;;;;;-145.63;54.64;39386.06;4986833;28;20057;-69
2023/11/08 06:11:29;;;;;;;9.02;5.15;;;;;;;-145.63;54.09;39386.06;5002194;28;20030;-69
2023/11/08 06:13:55;;;;;;;6.75;5.40;;;;;;;-145.63;54.48;39431.03;5006035;28;20109;-69
2023/11/08 06:16:21;;;;;;;9.65;5.07;;;;;;;-145.63;54.43;39405.59;5000148;28;20038;-68
2023/11/08 06:18:46;;;;;;;9.48;5.90;;;;;;;-145.63;54.32;39413.44;4988174;28;20031;-69
2023/11/08 06:21:13;;;;;;;9.05;5.28;;;;;;;-145.63;54.18;39429.06;5005237;28;20038;-67
2023/11/08 06:23:39;;;;;;;7.68;5.40;;;;;;;-145.63;54.28;38840.44;4989357;28;20031;-68
2023/11/08 06:26:05;;;;;;;8.40;5.20;;;;;;;-145.63;54.17;39419.31;4997810;28;20032;-69
2023/11/08 06:28:31;;;;;;;8.82;5.13;;;;;;;-145.63;54.50;39403.66;4998554;28;20030;-69
2023/11/08 06:30:58;;;;;;;12.88;6.03;;;;;;;-145.63;54.49;39425.16;4991355;28;20135;-68
2023/11/08 06:33:23;;;;;;;9.43;5.43;;;;;;;-145.63;53.95;39391.91;5005726;28;20346;-68
2023/11/08 06:35:50;;;;;;;8.63;5.63;;;;;;;-145.63;54.12;39409.53;4988158;28;20029;-69
2023/11/08 06:38:16;;;;;;;8.38;5.00;;;;;;;-145.63;54.02;39378.22;5013013;28;20045;-68
2023/11/08 06:40:41;;;;;;;10.18;6.18;;;;;;;-145.63;54.45;39405.59;5016501;28;20291;-68
2023/11/08 06:43:07;;;;;;;7.78;4.97;;;;;;;-145.63;54.10;39411.47;5001327;28;20350;-69
2023/11/08 06:45:34;;;;;;;14.52;5.90;;;;;;;-145.63;54.34;39397.78;4989429;28;20026;-67
2023/11/08 06:47:59;;;;;;;12.98;5.55;;;;;;;-145.63;53.84;39438.84;4999412;28;20046;-68
2023/11/08 06:50:25;;;;;;;10.65;5.53;;;;;;;-145.63;54.43;39405.59;5001463;28;20418;-70
2023/11/08 06:52:51;;;;;;;10.70;5.45;;;;;;;-145.63;54.56;39397.78;5003302;28;20120;-70
2023/11/08 06:55:17;;;;;;;7.88;5.38;;;;;;;-145.63;54.59;39403.66;5005862;28;20023;-70
2023/11/08 06:57:46;;;;;;;9.85;5.88;;;;;;;-145.63;54.34;39434.94;5005432;28;20026;-69
2023/11/08 07:00:14;;;;;;;10.65;5.30;;;;;;;-145.63;54.00;39389.97;5005905;28;20105;-70
2023/11/08 07:02:40;;;;;;;7.63;5.60;;;;;;;-145.63;54.00;39415.38;5005042;28;20041;-68
2023/11/08 07:05:06;;;;;;;9.13;4.85;;;;;;;-145.63;53.84;39431.03;4992097;28;20035;-68
2023/11/08 07:07:33;;;;;;;10.93;5.45;;;;;;;-145.63;53.53;39389.97;4989308;28;20049;-71
2023/11/08 07:09:59;;;;;;;12.93;4.82;;;;;;;-145.63;54.11;39397.78;5000204;28;20037;-70
2023/11/08 07:12:25;;;;;;;10.73;5.03;;;;;;;-145.63;53.77;39391.91;5006295;28;20037;-70
2023/11/08 07:14:50;;;;;;;7.65;4.90;;;;;;;-145.63;53.42;39384.09;4987643;28;20034;-70
2023/11/08 07:17:16;;;;;;;11.90;5.50;;;;;;;-145.63;53.74;39393.88;5002551;28;20137;-69
2023/11/08 07:19:42;;;;;;;9.50;5.75;;;;;;;-145.63;53.02;39380.19;4991323;28;20027;-71
2023/11/08 07:22:08;;;;;;;10.25;5.30;;;;;;;-145.63;52.73;39388.00;4989604;28;20061;-70
2023/11/08 07:24:34;;;;;;;9.00;5.55;;;;;;;-145.63;52.64;39391.91;4989917;28;20043;-71
2023/11/08 07:27:00;;;;;;;9.80;5.80;;;;;;;-145.63;53.72;39434.94;4990069;28;20030;-70
2023/11/08 07:29:25;;;;;;;12.00;5.22;;;;;;;-145.63;52.73;39389.97;4987953;28;20041;-70
2023/11/08 07:31:51;;;;;;;9.77;5.20;;;;;;;-145.63;53.08;39378.22;4997729;28;20030;-70
2023/11/08 07:34:24;;;;;;;9.93;5.35;;;;;;;-145.63;52.83;39411.47;5009923;28;20096;-70
2023/11/08 07:36:53;;;;;;;9.40;5.20;;;;;;;-145.63;52.88;39372.34;5022785;28;20025;-70
2023/11/08 07:39:19;;;;;;;9.85;5.03;;;;;;;-145.63;53.03;39411.47;5004985;28;20029;-70
2023/11/08 07:41:45;;;;;;;10.02;5.10;;;;;;;-145.63;53.15;39364.53;5001153;28;20163;-69
2023/11/08 07:44:12;;;;;;;10.60;5.22;;;;;;;-145.63;53.00;39395.84;5016820;28;20073;-70
2023/11/08 07:46:37;;;;;;;12.20;5.85;;;;;;;-145.63;53.32;39221.78;4997891;28;20041;-70
2023/11/08 07:49:03;;;;;;;9.25;5.18;;;;;;;-145.63;53.57;39429.06;4997595;28;20029;-69
2023/11/08 07:51:29;;;;;;;7.32;4.85;;;;;;;-145.63;52.73;39399.75;4999884;28;20085;-69
2023/11/08 07:53:59;;;;;;;9.27;5.38;;;;;;;-145.63;53.80;39407.56;4993259;28;20039;-70
2023/11/08 07:56:25;;;;;;;11.05;5.15;;;;;;;-145.63;53.24;39399.75;4998424;28;20026;-69
2023/11/08 07:58:52;;;;;;;9.88;5.45;;;;;;;-145.63;53.44;39397.78;4996239;28;20385;-71
2023/11/08 08:01:18;;;;;;;10.90;5.32;;;;;;;-145.63;53.44;39382.13;4992542;28;20030;-70
2023/11/08 08:03:45;;;;;;;7.85;5.65;;;;;;;-145.63;53.77;39413.44;4992830;28;20333;-70
2023/11/08 08:06:11;;;;;;;10.85;5.82;;;;;;;-145.63;53.38;39380.19;4992885;28;20038;-69
2023/11/08 08:08:37;;;;;;;8.40;5.45;;;;;;;-145.63;53.80;39454.50;4997256;28;20322;-70
2023/11/08 08:11:03;;;;;;;8.82;5.63;;;;;;;-145.63;54.32;39405.59;4993509;28;20288;-71
2023/11/08 08:13:29;;;;;;;10.25;5.78;;;;;;;-145.63;54.21;39384.09;4995550;28;20313;-69
2023/11/08 08:15:55;;;;;;;10.95;5.57;;;;;;;-145.63;54.51;39368.44;4998802;28;20061;-72
2023/11/08 08:18:21;;;;;;;7.05;5.30;;;;;;;-145.63;53.46;39401.69;4989313;28;20042;-72
2023/11/08 08:20:47;;;;;;;7.95;5.88;;;;;;;-145.63;53.97;39407.56;5001217;28;20026;-71
2023/11/08 08:23:13;;;;;;;8.35;5.38;;;;;;;-145.63;53.82;39401.69;4991088;28;20312;-70
2023/11/08 08:25:42;;;;;;;8.15;5.30;;;;;;;-145.63;53.23;39384.09;4991411;28;20310;-70
2023/11/08 08:28:08;;;;;;;9.55;5.72;;;;;;;-145.63;53.38;39415.38;5000662;28;20027;-72
2023/11/08 08:30:35;;;;;;;11.02;5.43;;;;;;;-145.63;53.18;39395.84;4988136;28;20018;-71
2023/11/08 08:33:04;;;;;;;10.23;5.90;;;;;;;-145.63;53.50;39380.19;4990626;28;20406;-70
2023/11/08 08:35:31;;;;;;;17.65;5.75;;;;;;;-145.63;53.22;39386.06;4999638;28;20337;-72
2023/11/08 08:37:58;;;;;;;10.70;6.22;;;;;;;-145.63;53.54;39399.75;4994025;28;20027;-71
2023/11/08 08:40:24;;;;;;;10.35;6.03;;;;;;;-145.63;53.05;39442.78;4989493;28;20029;-70
2023/11/08 08:42:50;;;;;;;10.07;5.80;;;;;;;-145.63;53.46;39407.56;5002988;28;20081;-71
2023/11/08 08:45:16;;;;;;;12.70;5.72;;;;;;;-145.63;52.99;39419.31;4990159;28;20231;-71
2023/11/08 08:47:42;;;;;;;11.38;5.25;;;;;;;-145.63;53.20;39419.31;4990153;28;20037;-71
2023/11/08 08:50:14;;;;;;;8.63;5.57;;;;;;;-145.63;53.31;39427.13;4997427;28;20378;-71
2023/11/08 08:52:44;;;;;;;8.57;5.60;;;;;;;-145.63;52.98;39407.56;4994092;28;20034;-70
2023/11/08 08:55:10;;;;;;;9.48;5.68;;;;;;;-145.63;53.13;39411.47;4987278;28;20026;-71
2023/11/08 08:57:37;;;;;;;6.72;5.13;;;;;;;-145.63;53.34;39399.75;5003431;28;20053;-71
2023/11/08 09:00:03;;;;;;;7.70;5.60;;;;;;;-145.63;53.59;39399.75;5003776;28;20049;-71
2023/11/08 09:02:31;;;;;;;10.65;5.63;;;;;;;-145.63;53.23;39425.16;4989815;28;20030;-70
2023/11/08 09:04:57;;;;;;;10.38;6.15;;;;;;;-145.63;53.00;39407.56;4991235;28;20050;-71
2023/11/08 09:07:22;;;;;;;8.10;5.43;;;;;;;-145.63;53.34;39411.47;4989637;28;20041;-71
2023/11/08 09:09:48;;;;;;;8.45;4.93;;;;;;;-145.63;52.11;39405.59;5003273;28;20080;-71
2023/11/08 09:12:14;;;;;;;9.05;5.25;;;;;;;-145.63;52.61;39384.09;5000581;28;20030;-70
2023/11/08 09:14:39;;;;;;;7.03;4.97;;;;;;;-145.63;51.88;39403.66;5003037;28;20078;-71
2023/11/08 09:17:05;;;;;;;9.30;4.80;;;;;;;-145.63;52.49;39434.94;5027294;28;20073;-71
2023/11/08 09:19:31;;;;;;;12.30;5.57;;;;;;;-145.63;52.13;39395.84;4990596;28;20026;-72
2023/11/08 09:21:56;;;;;;;8.80;4.90;;;;;;;-145.63;52.23;39384.09;4988791;28;20089;-70
2023/11/08 09:24:22;;;;;;;6.13;4.57;;;;;;;-145.63;52.06;39368.44;5002869;28;20068;-72
2023/11/08 09:26:48;;;;;;;8.85;4.93;;;;;;;-145.63;51.64;39360.63;5002839;28;20026;-71
2023/11/08 09:29:15;;;;;;;6.85;4.60;;;;;;;-145.63;51.28;39344.97;4991804;28;20026;-71
2023/11/08 09:31:42;;;;;;;7.28;4.90;;;;;;;-145.63;50.78;39354.75;4992162;28;20081;-72
2023/11/08 09:34:08;;;;;;;10.68;5.00;;;;;;;-145.63;50.98;39352.81;4987546;28;20337;-71
2023/11/08 09:36:38;;;;;;;7.47;4.78;;;;;;;-145.63;50.32;39329.34;4986220;28;20026;-73
2023/11/08 09:39:05;;;;;;;6.72;4.60;;;;;;;-145.63;50.17;39356.72;5002904;28;20022;-70
2023/11/08 09:41:31;;;;;;;6.38;4.53;;;;;;;-145.63;50.17;39358.66;4989465;28;20030;-71
2023/11/08 09:43:58;;;;;;;8.15;4.88;;;;;;;-145.63;50.42;39388.00;4992971;28;20022;-73
2023/11/08 09:46:26;;;;;;;9.18;4.63;;;;;;;-145.63;50.58;39329.34;4998381;28;20027;-73
2023/11/08 09:48:55;;;;;;;6.53;4.45;;;;;;;-145.63;50.39;39348.88;4990391;28;20022;-73
2023/11/08 09:51:21;;;;;;;7.50;4.70;;;;;;;-145.63;49.94;39370.41;5003135;28;20033;-72
2023/11/08 09:53:47;;;;;;;7.68;4.32;;;;;;;-145.63;49.91;39352.81;5002662;28;20038;-74
2023/11/08 09:56:13;;;;;;;11.50;4.50;;;;;;;-145.63;49.61;39350.84;4992076;28;20035;-73
2023/11/08 09:58:41;;;;;;;6.95;4.18;;;;;;;-145.63;49.45;39401.69;4990241;28;20022;-73
2023/11/08 10:01:17;;;;;;;10.57;4.10;;;;;;;-145.63;49.00;39321.50;5006636;28;20038;-74
2023/11/08 10:03:44;;;;;;;7.13;4.05;;;;;;;-145.63;49.00;39358.66;5006745;28;20046;-73
2023/11/08 10:06:11;;;;;;;9.90;4.72;;;;;;;-145.63;49.23;39358.66;4987940;28;20031;-74
2023/11/08 10:08:37;;;;;;;5.75;4.18;;;;;;;-145.63;48.62;39380.19;5001532;28;20025;-74
2023/11/08 10:11:07;;;;;;;7.47;4.20;;;;;;;-145.63;48.68;39360.63;5002714;28;20026;-72
2023/11/08 10:13:54;;;;;;;9.82;4.53;;;;;;;-145.63;48.71;39368.44;4993686;28;20034;-70
2023/11/08 10:16:21;;;;;;;9.07;4.18;;;;;;;-145.63;48.20;39364.53;4995728;28;20049;-71
2023/11/08 10:18:54;;;;;;;9.75;4.57;;;;;;;-145.63;48.34;39427.13;4990706;28;20050;-70
2023/11/08 10:21:20;;;;;;;6.38;3.90;;;;;;;-145.63;48.58;39329.34;4993669;28;20192;-70
2023/11/08 10:23:50;;;;;;;9.68;5.13;;;;;;;-145.63;48.35;39341.06;4987282;28;20323;-71
2023/11/08 10:26:22;;;;;;;5.97;3.90;;;;;;;-145.63;48.37;39380.19;4991354;28;20026;-73
2023/11/08 10:29:03;;;;;;;8.02;4.22;;;;;;;-145.63;48.78;39337.16;4997196;28;20037;-71
2023/11/08 10:31:33;;;;;;;6.03;3.88;;;;;;;-145.63;47.91;39348.88;4976526;28;20038;-72
2023/11/08 10:34:07;;;;;;;6.32;4.28;;;;;;;-145.63;48.38;39389.97;4987344;28;20121;-71
2023/11/08 10:36:37;;;;;;;6.28;4.22;;;;;;;-145.63;48.10;39329.34;5006216;28;20038;-72
2023/11/08 10:39:06;;;;;;;7.68;4.10;;;;;;;-145.63;48.04;39354.75;4988177;28;20030;-70
2023/11/08 10:41:32;;;;;;;6.72;4.07;;;;;;;-145.63;46.92;39344.97;4999661;28;20026;-71
2023/11/08 10:44:11;;;;;;;10.77;3.95;;;;;;;-145.63;47.49;39380.19;4997055;28;20042;-72
2023/11/08 10:46:40;;;;;;;7.55;3.95;;;;;;;-145.63;47.05;39354.75;4992237;28;20057;-71
2023/11/08 10:49:06;;;;;;;6.75;3.80;;;;;;;-145.63;47.51;39341.06;5005690;28;20049;-72
2023/11/08 10:51:37;;;;;;;9.05;4.25;;;;;;;-145.63;47.06;39411.47;5005915;28;20037;-71
2023/11/08 10:54:07;;;;;;;6.43;3.63;;;;;;;-145.63;46.73;39364.53;5005646;28;20092;-73
2023/11/08 10:56:34;;;;;;;6.80;3.45;;;;;;;-145.63;47.34;39485.78;4992249;28;20467;-71
2023/11/08 10:59:03;;;;;;;7.30;3.40;;;;;;;-145.63;46.81;39370.41;4994523;28;20081;-71
2023/11/08 11:01:30;;;;;;;7.38;3.78;;;;;;;-145.63;47.24;39403.66;5010149;28;20117;-70
2023/11/08 11:04:09;;;;;;;5.65;3.35;;;;;;;-145.63;47.13;39352.81;5024770;28;20335;-70
2023/11/08 11:06:36;;;;;;;8.15;3.33;;;;;;;-145.63;47.07;39358.66;5005368;28;20026;-71
2023/11/08 11:09:10;;;;;;;9.65;4.03;;;;;;;-145.63;46.96;39380.19;4988193;28;20034;-72
2023/11/08 11:11:46;;;;;;;9.20;3.45;;;;;;;-145.63;47.39;39356.72;4998268;28;20314;-71
2023/11/08 11:14:47;;;;;;;7.65;3.42;;;;;;;-145.63;47.17;39384.09;5004788;28;20073;-71
2023/11/08 11:17:26;;;;;;;6.13;3.40;;;;;;;-145.63;46.97;39395.84;4993578;28;20066;-71